Berlaar, Belgium
Current Conditions -  °F | °C
As of 6:50 AM on Sunday 23 Nov 2014 (Local Time) from EBAW Reporting Station
Haze Haze  
Wind Chill: 46°   Ceiling: Unl
Heat Index: 46°   Visibility: 2.5mi
Dew Point: 43°   Wind: 2mph
Humidity: 87%   Direction: 120°ESE
Pressure: 30"   Gusts: NA
Location:  51.12°N, 4.66°E
Report Text: EBAW 230550Z 12002KT 4000 BR NSC 08/06 Q1016 TEMPO 3000 MIFG
Loading
Personal Weather Stations






























Interactive Weather Map New forecast layout! Learn more

10-Day Weather Forecast

Advertisements
Track Severe Weather on mobile